sensor_id;sensor_type;location;lat;lon;timestamp;temperature;humidity
26575;DHT22;67165;50.256;10.978;2023-07-29T00:01:55;18.20;98.00
26575;DHT22;67165;50.256;10.978;2023-07-29T00:04:20;18.20;98.00
26575;DHT22;67165;50.256;10.978;2023-07-29T00:06:46;18.20;98.00
26575;DHT22;67165;50.256;10.978;2023-07-29T00:09:12;18.10;98.00
26575;DHT22;67165;50.256;10.978;2023-07-29T00:11:38;18.00;98.00
26575;DHT22;67165;50.256;10.978;2023-07-29T00:14:03;18.00;98.00
26575;DHT22;67165;50.256;10.978;2023-07-29T00:16:29;18.00;98.00
26575;DHT22;67165;50.256;10.978;2023-07-29T00:18:55;18.00;98.00
26575;DHT22;67165;50.256;10.978;2023-07-29T00:21:20;18.00;98.00
26575;DHT22;67165;50.256;10.978;2023-07-29T00:23:46;18.00;98.00
26575;DHT22;67165;50.256;10.978;2023-07-29T00:26:12;18.00;98.00
26575;DHT22;67165;50.256;10.978;2023-07-29T00:28:37;18.00;98.00
26575;DHT22;67165;50.256;10.978;2023-07-29T00:31:03;18.00;98.00
26575;DHT22;67165;50.256;10.978;2023-07-29T00:33:28;18.10;98.00
26575;DHT22;67165;50.256;10.978;2023-07-29T00:35:54;18.10;98.00
26575;DHT22;67165;50.256;10.978;2023-07-29T00:38:20;18.10;98.00
26575;DHT22;67165;50.256;10.978;2023-07-29T00:40:45;18.10;98.00
26575;DHT22;67165;50.256;10.978;2023-07-29T00:43:11;18.10;98.00
26575;DHT22;67165;50.256;10.978;2023-07-29T00:45:37;18.10;98.00
26575;DHT22;67165;50.256;10.978;2023-07-29T00:48:04;18.10;98.00
26575;DHT22;67165;50.256;10.978;2023-07-29T00:50:31;18.10;98.00
26575;DHT22;67165;50.256;10.978;2023-07-29T00:52:58;18.00;98.00
26575;DHT22;67165;50.256;10.978;2023-07-29T00:55:24;18.10;98.00
26575;DHT22;67165;50.256;10.978;2023-07-29T00:57:51;18.10;98.00
26575;DHT22;67165;50.256;10.978;2023-07-29T01:00:18;18.00;98.00
26575;DHT22;67165;50.256;10.978;2023-07-29T01:02:44;18.10;98.00
26575;DHT22;67165;50.256;10.978;2023-07-29T01:05:13;18.10;98.00
26575;DHT22;67165;50.256;10.978;2023-07-29T01:15:47;18.10;98.00
26575;DHT22;67165;50.256;10.978;2023-07-29T01:18:36;18.10;98.00
26575;DHT22;67165;50.256;10.978;2023-07-29T01:21:07;18.10;98.00
26575;DHT22;67165;50.256;10.978;2023-07-29T01:23:34;18.10;98.00
26575;DHT22;67165;50.256;10.978;2023-07-29T01:26:01;18.10;98.00
26575;DHT22;67165;50.256;10.978;2023-07-29T01:28:28;18.10;98.00
26575;DHT22;67165;50.256;10.978;2023-07-29T01:36:42;18.10;98.00
26575;DHT22;67165;50.256;10.978;2023-07-29T01:39:09;18.10;98.00
26575;DHT22;67165;50.256;10.978;2023-07-29T01:41:36;18.10;98.00
26575;DHT22;67165;50.256;10.978;2023-07-29T01:44:02;18.10;98.00
26575;DHT22;67165;50.256;10.978;2023-07-29T01:46:28;18.10;98.00
26575;DHT22;67165;50.256;10.978;2023-07-29T01:48:54;18.10;98.00
26575;DHT22;67165;50.256;10.978;2023-07-29T01:51:20;18.10;98.00
26575;DHT22;67165;50.256;10.978;2023-07-29T01:53:46;18.10;98.00
26575;DHT22;67165;50.256;10.978;2023-07-29T01:56:12;18.10;98.00
26575;DHT22;67165;50.256;10.978;2023-07-29T01:58:38;18.10;98.00
26575;DHT22;67165;50.256;10.978;2023-07-29T02:01:03;18.10;98.00
26575;DHT22;67165;50.256;10.978;2023-07-29T02:03:29;18.10;98.00
26575;DHT22;67165;50.256;10.978;2023-07-29T02:05:55;18.00;98.00
26575;DHT22;67165;50.256;10.978;2023-07-29T02:08:20;18.00;98.00
26575;DHT22;67165;50.256;10.978;2023-07-29T02:10:46;18.00;98.00
26575;DHT22;67165;50.256;10.978;2023-07-29T02:13:12;18.00;98.00
26575;DHT22;67165;50.256;10.978;2023-07-29T02:15:37;18.00;98.00
26575;DHT22;67165;50.256;10.978;2023-07-29T02:18:03;18.00;98.00
26575;DHT22;67165;50.256;10.978;2023-07-29T02:20:29;17.90;98.00
26575;DHT22;67165;50.256;10.978;2023-07-29T02:22:55;17.90;98.00
26575;DHT22;67165;50.256;10.978;2023-07-29T02:25:20;17.90;98.00
26575;DHT22;67165;50.256;10.978;2023-07-29T02:27:46;17.90;98.00
26575;DHT22;67165;50.256;10.978;2023-07-29T02:30:11;17.90;98.00
26575;DHT22;67165;50.256;10.978;2023-07-29T02:32:38;17.90;98.00
26575;DHT22;67165;50.256;10.978;2023-07-29T02:35:04;18.00;98.00
26575;DHT22;67165;50.256;10.978;2023-07-29T02:37:30;17.90;98.00
26575;DHT22;67165;50.256;10.978;2023-07-29T02:39:56;17.90;98.00
26575;DHT22;67165;50.256;10.978;2023-07-29T02:42:21;17.90;98.00
26575;DHT22;67165;50.256;10.978;2023-07-29T02:44:47;17.90;98.00
26575;DHT22;67165;50.256;10.978;2023-07-29T02:47:13;17.90;98.00
26575;DHT22;67165;50.256;10.978;2023-07-29T02:49:38;17.90;98.00
26575;DHT22;67165;50.256;10.978;2023-07-29T02:52:04;17.90;98.00
26575;DHT22;67165;50.256;10.978;2023-07-29T02:54:30;17.90;98.00
26575;DHT22;67165;50.256;10.978;2023-07-29T02:56:56;17.90;98.00
26575;DHT22;67165;50.256;10.978;2023-07-29T02:59:21;17.90;98.00
26575;DHT22;67165;50.256;10.978;2023-07-29T03:01:47;17.90;98.00
26575;DHT22;67165;50.256;10.978;2023-07-29T03:04:12;17.90;98.00
26575;DHT22;67165;50.256;10.978;2023-07-29T03:06:38;17.80;98.00
26575;DHT22;67165;50.256;10.978;2023-07-29T03:09:04;17.80;98.00
26575;DHT22;67165;50.256;10.978;2023-07-29T03:11:30;17.90;98.00
26575;DHT22;67165;50.256;10.978;2023-07-29T03:13:56;17.90;98.00
26575;DHT22;67165;50.256;10.978;2023-07-29T03:16:22;17.90;98.00
26575;DHT22;67165;50.256;10.978;2023-07-29T03:18:48;17.90;98.00
26575;DHT22;67165;50.256;10.978;2023-07-29T03:21:14;17.90;98.00
26575;DHT22;67165;50.256;10.978;2023-07-29T03:23:40;17.90;98.00
26575;DHT22;67165;50.256;10.978;2023-07-29T03:26:06;17.90;98.00
26575;DHT22;67165;50.256;10.978;2023-07-29T03:28:42;17.90;98.00
26575;DHT22;67165;50.256;10.978;2023-07-29T03:31:08;17.90;98.00
26575;DHT22;67165;50.256;10.978;2023-07-29T03:33:34;17.90;98.00
26575;DHT22;67165;50.256;10.978;2023-07-29T03:36:00;17.90;98.00
26575;DHT22;67165;50.256;10.978;2023-07-29T03:38:26;17.90;98.00
26575;DHT22;67165;50.256;10.978;2023-07-29T03:40:52;17.90;98.00
26575;DHT22;67165;50.256;10.978;2023-07-29T03:43:19;17.90;98.00
26575;DHT22;67165;50.256;10.978;2023-07-29T03:45:44;17.90;98.00
26575;DHT22;67165;50.256;10.978;2023-07-29T03:48:10;17.90;98.00
26575;DHT22;67165;50.256;10.978;2023-07-29T03:50:36;17.90;98.00
26575;DHT22;67165;50.256;10.978;2023-07-29T03:53:05;17.90;98.00
26575;DHT22;67165;50.256;10.978;2023-07-29T03:55:31;17.90;98.00
26575;DHT22;67165;50.256;10.978;2023-07-29T03:57:57;17.90;98.00
26575;DHT22;67165;50.256;10.978;2023-07-29T04:00:23;17.90;98.00
26575;DHT22;67165;50.256;10.978;2023-07-29T04:02:49;17.90;98.00
26575;DHT22;67165;50.256;10.978;2023-07-29T04:05:15;17.80;98.00
26575;DHT22;67165;50.256;10.978;2023-07-29T04:07:40;17.90;98.00
26575;DHT22;67165;50.256;10.978;2023-07-29T04:10:07;17.80;98.00
26575;DHT22;67165;50.256;10.978;2023-07-29T04:12:33;17.80;98.00
26575;DHT22;67165;50.256;10.978;2023-07-29T04:14:58;17.80;98.00
26575;DHT22;67165;50.256;10.978;2023-07-29T04:17:24;17.80;98.00
26575;DHT22;67165;50.256;10.978;2023-07-29T04:19:50;17.80;98.00
26575;DHT22;67165;50.256;10.978;2023-07-29T04:22:16;17.80;98.00
26575;DHT22;67165;50.256;10.978;2023-07-29T04:24:42;17.80;98.00
26575;DHT22;67165;50.256;10.978;2023-07-29T04:27:08;17.80;98.00
26575;DHT22;67165;50.256;10.978;2023-07-29T04:29:33;17.90;98.00
26575;DHT22;67165;50.256;10.978;2023-07-29T04:32:01;17.90;98.00
26575;DHT22;67165;50.256;10.978;2023-07-29T04:34:27;17.90;98.00
26575;DHT22;67165;50.256;10.978;2023-07-29T04:36:53;17.90;98.00
26575;DHT22;67165;50.256;10.978;2023-07-29T04:39:18;17.90;98.00
26575;DHT22;67165;50.256;10.978;2023-07-29T04:41:44;17.90;98.00
26575;DHT22;67165;50.256;10.978;2023-07-29T04:44:09;18.00;98.00
26575;DHT22;67165;50.256;10.978;2023-07-29T04:46:36;18.00;98.00
26575;DHT22;67165;50.256;10.978;2023-07-29T04:49:02;18.10;98.00
26575;DHT22;67165;50.256;10.978;2023-07-29T04:51:28;18.20;98.00
26575;DHT22;67165;50.256;10.978;2023-07-29T04:53:53;18.30;98.00
26575;DHT22;67165;50.256;10.978;2023-07-29T04:56:19;18.40;98.00
26575;DHT22;67165;50.256;10.978;2023-07-29T04:58:45;18.40;98.00
26575;DHT22;67165;50.256;10.978;2023-07-29T05:01:11;18.50;98.00
26575;DHT22;67165;50.256;10.978;2023-07-29T05:03:36;18.60;98.00
26575;DHT22;67165;50.256;10.978;2023-07-29T05:06:03;18.60;98.00
26575;DHT22;67165;50.256;10.978;2023-07-29T05:08:29;18.60;98.00
26575;DHT22;67165;50.256;10.978;2023-07-29T05:10:55;18.40;98.00
26575;DHT22;67165;50.256;10.978;2023-07-29T05:13:21;18.30;98.00
26575;DHT22;67165;50.256;10.978;2023-07-29T05:15:48;18.20;98.00
26575;DHT22;67165;50.256;10.978;2023-07-29T05:18:14;18.10;98.00
26575;DHT22;67165;50.256;10.978;2023-07-29T05:20:40;18.00;98.00
26575;DHT22;67165;50.256;10.978;2023-07-29T05:23:06;17.90;98.00
26575;DHT22;67165;50.256;10.978;2023-07-29T05:25:32;17.90;98.00
26575;DHT22;67165;50.256;10.978;2023-07-29T05:28:00;17.90;98.00
26575;DHT22;67165;50.256;10.978;2023-07-29T05:30:26;17.90;98.00
26575;DHT22;67165;50.256;10.978;2023-07-29T05:32:52;17.90;98.00
26575;DHT22;67165;50.256;10.978;2023-07-29T05:35:18;17.90;98.00
26575;DHT22;67165;50.256;10.978;2023-07-29T05:37:43;17.90;98.00
26575;DHT22;67165;50.256;10.978;2023-07-29T05:40:09;17.90;98.00
26575;DHT22;67165;50.256;10.978;2023-07-29T05:42:35;17.90;98.00
26575;DHT22;67165;50.256;10.978;2023-07-29T05:45:01;17.90;98.00
26575;DHT22;67165;50.256;10.978;2023-07-29T05:47:27;17.90;98.00
26575;DHT22;67165;50.256;10.978;2023-07-29T05:49:52;17.90;98.00
26575;DHT22;67165;50.256;10.978;2023-07-29T05:52:18;17.90;98.00
26575;DHT22;67165;50.256;10.978;2023-07-29T05:54:44;17.90;98.00
26575;DHT22;67165;50.256;10.978;2023-07-29T05:57:11;18.00;98.00
26575;DHT22;67165;50.256;10.978;2023-07-29T05:59:37;18.00;98.00
26575;DHT22;67165;50.256;10.978;2023-07-29T06:02:03;18.10;98.00
26575;DHT22;67165;50.256;10.978;2023-07-29T06:04:28;18.20;98.00
26575;DHT22;67165;50.256;10.978;2023-07-29T06:06:54;18.20;98.00
26575;DHT22;67165;50.256;10.978;2023-07-29T06:09:21;18.30;98.00
26575;DHT22;67165;50.256;10.978;2023-07-29T06:11:47;18.40;98.00
26575;DHT22;67165;50.256;10.978;2023-07-29T06:14:13;18.40;98.00
26575;DHT22;67165;50.256;10.978;2023-07-29T06:16:39;18.40;98.00
26575;DHT22;67165;50.256;10.978;2023-07-29T06:19:04;18.50;98.00
26575;DHT22;67165;50.256;10.978;2023-07-29T06:21:30;18.50;98.00
26575;DHT22;67165;50.256;10.978;2023-07-29T06:23:56;18.50;98.00
26575;DHT22;67165;50.256;10.978;2023-07-29T06:26:22;18.50;98.00
26575;DHT22;67165;50.256;10.978;2023-07-29T06:28:47;18.60;98.00
26575;DHT22;67165;50.256;10.978;2023-07-29T06:31:13;18.60;98.00
26575;DHT22;67165;50.256;10.978;2023-07-29T06:33:39;18.60;98.00
26575;DHT22;67165;50.256;10.978;2023-07-29T06:36:05;18.60;98.00
26575;DHT22;67165;50.256;10.978;2023-07-29T06:38:31;18.70;98.00
26575;DHT22;67165;50.256;10.978;2023-07-29T06:40:56;18.70;98.00
26575;DHT22;67165;50.256;10.978;2023-07-29T06:43:22;18.80;98.00
26575;DHT22;67165;50.256;10.978;2023-07-29T06:45:48;18.90;98.00
26575;DHT22;67165;50.256;10.978;2023-07-29T06:48:13;18.90;98.00
26575;DHT22;67165;50.256;10.978;2023-07-29T06:50:39;18.90;98.00
26575;DHT22;67165;50.256;10.978;2023-07-29T06:53:06;18.90;98.00
26575;DHT22;67165;50.256;10.978;2023-07-29T06:55:31;18.90;98.00
26575;DHT22;67165;50.256;10.978;2023-07-29T06:57:57;18.90;98.00
26575;DHT22;67165;50.256;10.978;2023-07-29T07:00:23;18.90;98.00
26575;DHT22;67165;50.256;10.978;2023-07-29T07:02:48;18.90;98.00
26575;DHT22;67165;50.256;10.978;2023-07-29T07:05:14;19.00;98.00
26575;DHT22;67165;50.256;10.978;2023-07-29T07:07:40;19.10;98.00
26575;DHT22;67165;50.256;10.978;2023-07-29T07:10:06;19.10;98.00
26575;DHT22;67165;50.256;10.978;2023-07-29T07:12:32;19.10;98.00
26575;DHT22;67165;50.256;10.978;2023-07-29T07:14:57;19.30;98.00
26575;DHT22;67165;50.256;10.978;2023-07-29T07:17:23;19.30;98.00
26575;DHT22;67165;50.256;10.978;2023-07-29T07:19:49;19.30;98.00
26575;DHT22;67165;50.256;10.978;2023-07-29T07:22:15;19.30;98.00
26575;DHT22;67165;50.256;10.978;2023-07-29T07:24:41;19.30;98.00
26575;DHT22;67165;50.256;10.978;2023-07-29T07:27:07;19.30;98.00
26575;DHT22;67165;50.256;10.978;2023-07-29T07:29:32;19.30;98.00
26575;DHT22;67165;50.256;10.978;2023-07-29T07:31:58;19.30;98.00
26575;DHT22;67165;50.256;10.978;2023-07-29T07:34:24;19.30;98.00
26575;DHT22;67165;50.256;10.978;2023-07-29T07:36:50;19.40;98.00
26575;DHT22;67165;50.256;10.978;2023-07-29T07:39:17;19.40;98.00
26575;DHT22;67165;50.256;10.978;2023-07-29T07:41:43;19.50;98.00
26575;DHT22;67165;50.256;10.978;2023-07-29T07:44:08;19.50;98.00
26575;DHT22;67165;50.256;10.978;2023-07-29T07:46:34;19.50;98.00
26575;DHT22;67165;50.256;10.978;2023-07-29T07:49:00;19.50;98.00
26575;DHT22;67165;50.256;10.978;2023-07-29T07:51:25;19.60;98.00
26575;DHT22;67165;50.256;10.978;2023-07-29T07:53:51;19.70;98.00
26575;DHT22;67165;50.256;10.978;2023-07-29T07:56:17;19.70;98.00
26575;DHT22;67165;50.256;10.978;2023-07-29T07:58:42;19.80;98.00
26575;DHT22;67165;50.256;10.978;2023-07-29T08:01:09;19.90;98.00
26575;DHT22;67165;50.256;10.978;2023-07-29T08:03:35;19.80;98.00
26575;DHT22;67165;50.256;10.978;2023-07-29T08:06:01;19.80;98.00
26575;DHT22;67165;50.256;10.978;2023-07-29T08:08:27;19.90;98.00
26575;DHT22;67165;50.256;10.978;2023-07-29T08:10:53;19.90;98.00
26575;DHT22;67165;50.256;10.978;2023-07-29T08:13:23;19.80;98.00
26575;DHT22;67165;50.256;10.978;2023-07-29T08:15:50;19.80;98.00
26575;DHT22;67165;50.256;10.978;2023-07-29T08:18:16;19.90;98.00
26575;DHT22;67165;50.256;10.978;2023-07-29T08:20:52;19.80;98.00
26575;DHT22;67165;50.256;10.978;2023-07-29T08:23:18;19.90;98.00
26575;DHT22;67165;50.256;10.978;2023-07-29T08:25:43;20.00;98.00
26575;DHT22;67165;50.256;10.978;2023-07-29T08:28:09;20.00;98.00
26575;DHT22;67165;50.256;10.978;2023-07-29T08:30:36;20.00;98.00
26575;DHT22;67165;50.256;10.978;2023-07-29T08:33:02;20.00;98.00
26575;DHT22;67165;50.256;10.978;2023-07-29T08:35:28;20.00;98.00
26575;DHT22;67165;50.256;10.978;2023-07-29T08:37:53;19.90;98.00
26575;DHT22;67165;50.256;10.978;2023-07-29T08:40:22;19.90;98.00
26575;DHT22;67165;50.256;10.978;2023-07-29T08:42:53;19.80;98.00
26575;DHT22;67165;50.256;10.978;2023-07-29T08:45:20;19.70;98.00
26575;DHT22;67165;50.256;10.978;2023-07-29T08:47:46;19.70;98.00
26575;DHT22;67165;50.256;10.978;2023-07-29T08:50:13;19.70;98.00
26575;DHT22;67165;50.256;10.978;2023-07-29T08:52:41;19.70;98.00
26575;DHT22;67165;50.256;10.978;2023-07-29T08:55:08;19.70;98.00
26575;DHT22;67165;50.256;10.978;2023-07-29T08:57:34;19.70;98.00
26575;DHT22;67165;50.256;10.978;2023-07-29T09:00:01;19.60;98.00
26575;DHT22;67165;50.256;10.978;2023-07-29T09:02:28;19.60;98.00
26575;DHT22;67165;50.256;10.978;2023-07-29T09:04:53;19.60;98.00
26575;DHT22;67165;50.256;10.978;2023-07-29T09:07:19;19.60;98.00
26575;DHT22;67165;50.256;10.978;2023-07-29T09:09:46;19.70;98.00
26575;DHT22;67165;50.256;10.978;2023-07-29T09:12:11;19.90;98.00
26575;DHT22;67165;50.256;10.978;2023-07-29T09:14:37;20.00;98.00
26575;DHT22;67165;50.256;10.978;2023-07-29T09:17:06;20.10;98.00
26575;DHT22;67165;50.256;10.978;2023-07-29T09:19:33;20.20;98.00
26575;DHT22;67165;50.256;10.978;2023-07-29T09:21:59;20.20;98.00
26575;DHT22;67165;50.256;10.978;2023-07-29T09:24:25;20.20;98.00
26575;DHT22;67165;50.256;10.978;2023-07-29T09:26:55;20.20;98.00
26575;DHT22;67165;50.256;10.978;2023-07-29T09:29:28;20.10;98.00
26575;DHT22;67165;50.256;10.978;2023-07-29T09:31:53;20.00;98.00
26575;DHT22;67165;50.256;10.978;2023-07-29T09:34:19;20.00;98.00
26575;DHT22;67165;50.256;10.978;2023-07-29T09:36:45;19.90;98.00
26575;DHT22;67165;50.256;10.978;2023-07-29T09:39:12;19.80;98.00
26575;DHT22;67165;50.256;10.978;2023-07-29T09:41:38;19.70;98.00
26575;DHT22;67165;50.256;10.978;2023-07-29T09:44:04;19.50;98.00
26575;DHT22;67165;50.256;10.978;2023-07-29T09:46:35;19.40;98.00
26575;DHT22;67165;50.256;10.978;2023-07-29T09:49:05;19.30;98.00
26575;DHT22;67165;50.256;10.978;2023-07-29T09:51:31;19.10;98.00
26575;DHT22;67165;50.256;10.978;2023-07-29T09:53:57;19.00;98.00
26575;DHT22;67165;50.256;10.978;2023-07-29T09:56:27;19.00;98.00
26575;DHT22;67165;50.256;10.978;2023-07-29T09:58:55;18.90;98.00
26575;DHT22;67165;50.256;10.978;2023-07-29T10:01:21;18.90;98.00
26575;DHT22;67165;50.256;10.978;2023-07-29T10:03:47;18.80;98.00
26575;DHT22;67165;50.256;10.978;2023-07-29T10:06:14;18.80;98.00
26575;DHT22;67165;50.256;10.978;2023-07-29T10:08:40;18.80;98.00
26575;DHT22;67165;50.256;10.978;2023-07-29T10:11:09;19.00;98.00
26575;DHT22;67165;50.256;10.978;2023-07-29T10:13:36;19.00;98.00
26575;DHT22;67165;50.256;10.978;2023-07-29T10:16:03;19.10;98.00
26575;DHT22;67165;50.256;10.978;2023-07-29T10:18:29;19.30;98.00
26575;DHT22;67165;50.256;10.978;2023-07-29T10:20:57;19.50;98.00
26575;DHT22;67165;50.256;10.978;2023-07-29T10:23:25;19.60;98.00
26575;DHT22;67165;50.256;10.978;2023-07-29T10:25:58;19.70;98.00
26575;DHT22;67165;50.256;10.978;2023-07-29T10:28:29;19.90;98.00
26575;DHT22;67165;50.256;10.978;2023-07-29T10:30:56;20.10;98.00
26575;DHT22;67165;50.256;10.978;2023-07-29T10:33:22;20.40;98.00
26575;DHT22;67165;50.256;10.978;2023-07-29T10:35:48;20.80;98.00
26575;DHT22;67165;50.256;10.978;2023-07-29T10:38:15;21.10;98.00
26575;DHT22;67165;50.256;10.978;2023-07-29T10:40:50;21.40;98.00
26575;DHT22;67165;50.256;10.978;2023-07-29T10:43:27;21.50;98.00
26575;DHT22;67165;50.256;10.978;2023-07-29T10:45:57;21.80;98.00
26575;DHT22;67165;50.256;10.978;2023-07-29T10:53:54;22.10;98.00
26575;DHT22;67165;50.256;10.978;2023-07-29T10:56:33;22.30;98.00
26575;DHT22;67165;50.256;10.978;2023-07-29T11:01:57;22.50;98.00
26575;DHT22;67165;50.256;10.978;2023-07-29T11:04:25;22.80;98.00
26575;DHT22;67165;50.256;10.978;2023-07-29T11:15:44;22.80;98.00
26575;DHT22;67165;50.256;10.978;2023-07-29T11:17:59;23.00;98.00
26575;DHT22;67165;50.256;10.978;2023-07-29T11:20:34;23.10;98.00
26575;DHT22;67165;50.256;10.978;2023-07-29T11:23:01;23.20;98.00
26575;DHT22;67165;50.256;10.978;2023-07-29T11:25:28;23.30;98.00
26575;DHT22;67165;50.256;10.978;2023-07-29T11:27:56;23.30;98.00
26575;DHT22;67165;50.256;10.978;2023-07-29T11:30:22;23.20;98.00
26575;DHT22;67165;50.256;10.978;2023-07-29T11:32:49;23.20;98.00
26575;DHT22;67165;50.256;10.978;2023-07-29T11:35:18;23.20;98.00
26575;DHT22;67165;50.256;10.978;2023-07-29T11:37:46;23.30;98.00
26575;DHT22;67165;50.256;10.978;2023-07-29T11:40:19;23.40;98.00
26575;DHT22;67165;50.256;10.978;2023-07-29T11:42:46;23.40;98.00
26575;DHT22;67165;50.256;10.978;2023-07-29T11:45:16;23.50;98.00
26575;DHT22;67165;50.256;10.978;2023-07-29T11:47:41;23.40;98.00
26575;DHT22;67165;50.256;10.978;2023-07-29T11:50:09;23.30;98.00
26575;DHT22;67165;50.256;10.978;2023-07-29T11:52:36;23.40;98.00
26575;DHT22;67165;50.256;10.978;2023-07-29T11:55:03;23.30;98.00
26575;DHT22;67165;50.256;10.978;2023-07-29T11:57:36;23.30;98.00
26575;DHT22;67165;50.256;10.978;2023-07-29T12:00:03;23.30;98.00
26575;DHT22;67165;50.256;10.978;2023-07-29T12:02:32;23.10;98.00
26575;DHT22;67165;50.256;10.978;2023-07-29T12:04:58;23.00;98.00
26575;DHT22;67165;50.256;10.978;2023-07-29T12:07:26;22.90;98.00
26575;DHT22;67165;50.256;10.978;2023-07-29T12:09:52;23.00;98.00
26575;DHT22;67165;50.256;10.978;2023-07-29T12:12:17;23.20;98.00
26575;DHT22;67165;50.256;10.978;2023-07-29T12:14:47;23.30;98.00
26575;DHT22;67165;50.256;10.978;2023-07-29T12:17:13;23.20;98.00
26575;DHT22;67165;50.256;10.978;2023-07-29T12:19:39;23.30;98.00
26575;DHT22;67165;50.256;10.978;2023-07-29T12:22:07;23.40;98.00
26575;DHT22;67165;50.256;10.978;2023-07-29T12:24:40;23.50;98.00
26575;DHT22;67165;50.256;10.978;2023-07-29T12:27:14;23.60;98.00
26575;DHT22;67165;50.256;10.978;2023-07-29T12:29:41;23.60;98.00
26575;DHT22;67165;50.256;10.978;2023-07-29T12:32:08;23.70;98.00
26575;DHT22;67165;50.256;10.978;2023-07-29T12:34:36;23.60;98.00
26575;DHT22;67165;50.256;10.978;2023-07-29T12:37:03;23.50;98.00
26575;DHT22;67165;50.256;10.978;2023-07-29T12:39:31;23.50;98.00
26575;DHT22;67165;50.256;10.978;2023-07-29T12:41:59;23.60;98.00
26575;DHT22;67165;50.256;10.978;2023-07-29T12:44:31;23.60;98.00
26575;DHT22;67165;50.256;10.978;2023-07-29T12:46:57;23.50;98.00
26575;DHT22;67165;50.256;10.978;2023-07-29T12:49:23;23.40;98.00
26575;DHT22;67165;50.256;10.978;2023-07-29T12:51:48;23.40;98.00
26575;DHT22;67165;50.256;10.978;2023-07-29T12:54:14;23.50;98.00
26575;DHT22;67165;50.256;10.978;2023-07-29T12:56:40;23.60;98.00
26575;DHT22;67165;50.256;10.978;2023-07-29T12:59:06;23.60;98.00
26575;DHT22;67165;50.256;10.978;2023-07-29T13:01:31;23.60;98.00
26575;DHT22;67165;50.256;10.978;2023-07-29T13:03:57;23.50;98.00
26575;DHT22;67165;50.256;10.978;2023-07-29T13:06:23;23.60;98.00
26575;DHT22;67165;50.256;10.978;2023-07-29T13:08:49;23.70;98.00
26575;DHT22;67165;50.256;10.978;2023-07-29T13:11:15;23.70;98.00
26575;DHT22;67165;50.256;10.978;2023-07-29T13:13:41;23.80;98.00
26575;DHT22;67165;50.256;10.978;2023-07-29T13:16:07;23.80;98.00
26575;DHT22;67165;50.256;10.978;2023-07-29T13:18:33;23.70;98.00
26575;DHT22;67165;50.256;10.978;2023-07-29T13:20:59;23.70;98.00
26575;DHT22;67165;50.256;10.978;2023-07-29T13:23:26;23.70;98.00
26575;DHT22;67165;50.256;10.978;2023-07-29T13:25:52;23.70;98.00
26575;DHT22;67165;50.256;10.978;2023-07-29T13:28:18;23.80;98.00
26575;DHT22;67165;50.256;10.978;2023-07-29T13:30:44;23.90;98.00
26575;DHT22;67165;50.256;10.978;2023-07-29T13:33:10;24.00;98.00
26575;DHT22;67165;50.256;10.978;2023-07-29T13:35:36;24.00;98.00
26575;DHT22;67165;50.256;10.978;2023-07-29T13:38:02;24.10;98.00
26575;DHT22;67165;50.256;10.978;2023-07-29T13:40:27;24.20;98.00
26575;DHT22;67165;50.256;10.978;2023-07-29T13:42:54;24.20;98.00
26575;DHT22;67165;50.256;10.978;2023-07-29T13:45:20;24.00;98.00
26575;DHT22;67165;50.256;10.978;2023-07-29T13:47:48;24.00;98.00
26575;DHT22;67165;50.256;10.978;2023-07-29T13:50:14;24.00;98.00
26575;DHT22;67165;50.256;10.978;2023-07-29T13:52:40;24.10;98.00
26575;DHT22;67165;50.256;10.978;2023-07-29T13:55:06;24.40;98.00
26575;DHT22;67165;50.256;10.978;2023-07-29T13:57:32;24.60;98.00
26575;DHT22;67165;50.256;10.978;2023-07-29T13:59:58;24.60;98.00
26575;DHT22;67165;50.256;10.978;2023-07-29T14:02:24;24.60;98.00
26575;DHT22;67165;50.256;10.978;2023-07-29T14:04:52;24.50;98.00
26575;DHT22;67165;50.256;10.978;2023-07-29T14:07:17;24.50;98.00
26575;DHT22;67165;50.256;10.978;2023-07-29T14:09:43;24.50;98.00
26575;DHT22;67165;50.256;10.978;2023-07-29T14:12:09;24.50;98.00
26575;DHT22;67165;50.256;10.978;2023-07-29T14:14:38;24.40;98.00
26575;DHT22;67165;50.256;10.978;2023-07-29T14:17:04;24.50;98.00
26575;DHT22;67165;50.256;10.978;2023-07-29T14:19:31;24.40;98.00
26575;DHT22;67165;50.256;10.978;2023-07-29T14:21:58;24.40;98.00
26575;DHT22;67165;50.256;10.978;2023-07-29T14:24:24;24.30;98.00
26575;DHT22;67165;50.256;10.978;2023-07-29T14:26:49;24.20;98.00
26575;DHT22;67165;50.256;10.978;2023-07-29T14:29:15;24.00;98.00
26575;DHT22;67165;50.256;10.978;2023-07-29T14:31:41;23.90;98.00
26575;DHT22;67165;50.256;10.978;2023-07-29T14:34:06;23.80;98.00
26575;DHT22;67165;50.256;10.978;2023-07-29T14:36:32;23.70;98.00
26575;DHT22;67165;50.256;10.978;2023-07-29T14:39:03;23.50;98.00
26575;DHT22;67165;50.256;10.978;2023-07-29T14:41:29;23.20;98.00
26575;DHT22;67165;50.256;10.978;2023-07-29T14:43:55;23.00;98.00
26575;DHT22;67165;50.256;10.978;2023-07-29T14:46:20;22.80;98.00
26575;DHT22;67165;50.256;10.978;2023-07-29T14:48:46;22.60;98.00
26575;DHT22;67165;50.256;10.978;2023-07-29T14:51:12;22.40;98.00
26575;DHT22;67165;50.256;10.978;2023-07-29T14:53:38;22.10;98.00
26575;DHT22;67165;50.256;10.978;2023-07-29T14:56:04;21.80;98.00
26575;DHT22;67165;50.256;10.978;2023-07-29T14:58:30;21.50;98.00
26575;DHT22;67165;50.256;10.978;2023-07-29T15:00:55;21.30;98.00
26575;DHT22;67165;50.256;10.978;2023-07-29T15:03:21;20.80;98.00
26575;DHT22;67165;50.256;10.978;2023-07-29T15:05:47;20.40;98.00
26575;DHT22;67165;50.256;10.978;2023-07-29T15:08:12;19.80;98.00
26575;DHT22;67165;50.256;10.978;2023-07-29T15:10:38;19.50;98.00
26575;DHT22;67165;50.256;10.978;2023-07-29T15:13:04;19.40;98.00
26575;DHT22;67165;50.256;10.978;2023-07-29T15:15:29;19.30;98.00
26575;DHT22;67165;50.256;10.978;2023-07-29T15:17:55;19.30;98.00
26575;DHT22;67165;50.256;10.978;2023-07-29T15:20:22;19.40;98.00
26575;DHT22;67165;50.256;10.978;2023-07-29T15:22:48;19.50;98.00
26575;DHT22;67165;50.256;10.978;2023-07-29T15:25:13;19.60;98.00
26575;DHT22;67165;50.256;10.978;2023-07-29T15:27:39;20.00;98.00
26575;DHT22;67165;50.256;10.978;2023-07-29T15:30:06;20.30;98.00
26575;DHT22;67165;50.256;10.978;2023-07-29T15:32:32;20.40;98.00
26575;DHT22;67165;50.256;10.978;2023-07-29T15:34:58;20.40;98.00
26575;DHT22;67165;50.256;10.978;2023-07-29T15:37:25;20.50;98.00
26575;DHT22;67165;50.256;10.978;2023-07-29T15:39:51;20.60;98.00
26575;DHT22;67165;50.256;10.978;2023-07-29T15:42:17;20.80;98.00